X  Close Metar Aviation Weather Data     KDZJ Blairsville Airport
Temperature
48°F Temperature
48°F Dewpoint
100% Humidity



Wind
0 MPH
0 KM/H
0 M/S
0 KTS



Calm
N
Current Conditions

Clear Clear
Pressure 1016.22 (hPa) - 30.01 (inHg)
Visibility 10 (mile) - 16.1 (km)
Airport
Airport-code KDZJ

Location: Blairsville Airport
Distance: 18 (mi)

Metar:
KDZJ 020355Z AUTO 00000KT 10SM CLR 09/09 A3001 RMK AO2 T00940090

Time: 10-01-2022 23:55 EDT